RAM1444 GMMW-GMTT
Flight info
| Callsign | RAM1444 |
|---|---|
| Flight time | 0h 29m |
| Altitude | 28000 |
| Route | ARI DCT NARMI |
| Aircraft | B738/M-SDE2E3FGHIRWXY/LB1 |
Departure
| Time | 2026-04-19 19:52 |
|---|---|
| Airport | Nador Al Aaroui International Airport (GMMW) |
Arrival
| Time | 2026-04-19 20:22 |
|---|---|
| Airport | Tangier Ibn Battuta Airport (GMTT) |
| Time | Latitude | Longitude | Altitude | Speed | Heading |
|---|---|---|---|---|---|
| 2026-04-19 19:41 | 34.99229 | -3.02983 | 591 ft | 0 kts | 348° |
| 2026-04-19 19:46 | 34.99215 | -3.02980 | 591 ft | 2 kts | 348° |
| 2026-04-19 19:46 | 34.99200 | -3.02976 | 591 ft | 2 kts | 348° |
| 2026-04-19 19:47 | 34.99183 | -3.02973 | 591 ft | 2 kts | 8° |
| 2026-04-19 19:47 | 34.99169 | -3.02982 | 591 ft | 2 kts | 62° |
| 2026-04-19 19:47 | 34.99164 | -3.03000 | 591 ft | 0 kts | 94° |
| 2026-04-19 19:49 | 34.99164 | -3.02991 | 591 ft | 6 kts | 90° |
| 2026-04-19 19:50 | 34.99175 | -3.02878 | 591 ft | 21 kts | 79° |
| 2026-04-19 19:50 | 34.99214 | -3.02650 | 589 ft | 33 kts | 78° |
| 2026-04-19 19:50 | 34.99265 | -3.02351 | 587 ft | 36 kts | 78° |
| 2026-04-19 19:50 | 34.99215 | -3.02203 | 586 ft | 18 kts | 166° |
| 2026-04-19 19:51 | 34.99067 | -3.02160 | 586 ft | 25 kts | 168° |
| 2026-04-19 19:51 | 34.99028 | -3.02210 | 586 ft | 11 kts | 257° |
| 2026-04-19 19:51 | 34.99016 | -3.02279 | 586 ft | 9 kts | 257° |
| 2026-04-19 19:51 | 34.98974 | -3.02522 | 587 ft | 71 kts | 258° |
| 2026-04-19 19:52 | 34.98808 | -3.03484 | 598 ft | 158 kts | 258° |
| 2026-04-19 19:52 | 34.98540 | -3.05009 | 984 ft | 204 kts | 258° |
| 2026-04-19 19:52 | 34.98336 | -3.06797 | 1847 ft | 213 kts | 276° |
| 2026-04-19 19:52 | 34.98845 | -3.08438 | 3052 ft | 211 kts | 296° |
| 2026-04-19 19:53 | 34.99500 | -3.10160 | 3535 ft | 240 kts | 293° |
| 2026-04-19 19:53 | 35.00176 | -3.12143 | 4148 ft | 260 kts | 291° |
| 2026-04-19 19:53 | 35.00847 | -3.14220 | 5115 ft | 265 kts | 291° |
| 2026-04-19 19:53 | 35.01503 | -3.16332 | 6134 ft | 268 kts | 290° |
| 2026-04-19 19:54 | 35.02152 | -3.18485 | 7110 ft | 272 kts | 290° |
| 2026-04-19 19:54 | 35.02798 | -3.20677 | 8072 ft | 276 kts | 289° |
| 2026-04-19 19:54 | 35.03443 | -3.22906 | 9015 ft | 281 kts | 289° |
| 2026-04-19 19:54 | 35.04088 | -3.25168 | 9927 ft | 285 kts | 289° |
| 2026-04-19 19:55 | 35.04744 | -3.27492 | 10611 ft | 299 kts | 289° |
| 2026-04-19 19:55 | 35.05450 | -3.30010 | 10826 ft | 328 kts | 289° |
| 2026-04-19 19:55 | 35.06196 | -3.32689 | 11282 ft | 345 kts | 288° |
| 2026-04-19 19:55 | 35.06983 | -3.35526 | 12070 ft | 351 kts | 288° |
| 2026-04-19 19:56 | 35.07766 | -3.38361 | 12926 ft | 354 kts | 288° |
| 2026-04-19 19:56 | 35.08555 | -3.41227 | 13741 ft | 358 kts | 288° |
| 2026-04-19 19:56 | 35.09342 | -3.44089 | 14481 ft | 363 kts | 288° |
| 2026-04-19 19:56 | 35.10149 | -3.47029 | 14886 ft | 367 kts | 288° |
| 2026-04-19 19:57 | 35.10966 | -3.50014 | 15004 ft | 379 kts | 288° |
| 2026-04-19 19:57 | 35.11823 | -3.53145 | 15015 ft | 398 kts | 288° |
| 2026-04-19 19:57 | 35.12717 | -3.56418 | 15014 ft | 412 kts | 288° |
| 2026-04-19 19:57 | 35.13625 | -3.59746 | 15002 ft | 414 kts | 288° |
| 2026-04-19 19:58 | 35.14532 | -3.63075 | 14995 ft | 413 kts | 288° |
| 2026-04-19 19:58 | 35.15438 | -3.66400 | 14993 ft | 412 kts | 288° |
| 2026-04-19 19:58 | 35.16341 | -3.69722 | 14998 ft | 412 kts | 288° |
| 2026-04-19 19:58 | 35.17254 | -3.73085 | 15003 ft | 412 kts | 288° |
| 2026-04-19 19:59 | 35.18145 | -3.76369 | 15004 ft | 413 kts | 288° |
| 2026-04-19 19:59 | 35.19047 | -3.79700 | 15002 ft | 413 kts | 288° |
| 2026-04-19 19:59 | 35.19947 | -3.83027 | 15002 ft | 412 kts | 288° |
| 2026-04-19 19:59 | 35.20847 | -3.86356 | 15001 ft | 412 kts | 288° |
| 2026-04-19 20:00 | 35.21745 | -3.89683 | 14999 ft | 412 kts | 288° |
| 2026-04-19 20:00 | 35.22640 | -3.93004 | 15001 ft | 412 kts | 288° |
| 2026-04-19 20:00 | 35.23536 | -3.96331 | 15003 ft | 412 kts | 288° |
| 2026-04-19 20:00 | 35.24431 | -3.99659 | 15003 ft | 412 kts | 288° |
| 2026-04-19 20:01 | 35.25323 | -4.02984 | 15001 ft | 412 kts | 288° |
| 2026-04-19 20:01 | 35.26216 | -4.06313 | 15000 ft | 412 kts | 288° |
| 2026-04-19 20:01 | 35.27108 | -4.09641 | 15002 ft | 411 kts | 288° |
| 2026-04-19 20:01 | 35.27997 | -4.12966 | 15002 ft | 411 kts | 288° |
| 2026-04-19 20:02 | 35.28887 | -4.16295 | 15000 ft | 411 kts | 288° |
| 2026-04-19 20:02 | 35.29775 | -4.19620 | 15001 ft | 411 kts | 288° |
| 2026-04-19 20:02 | 35.30662 | -4.22951 | 15001 ft | 411 kts | 288° |
| 2026-04-19 20:02 | 35.31549 | -4.26281 | 15001 ft | 411 kts | 288° |
| 2026-04-19 20:03 | 35.32435 | -4.29613 | 15001 ft | 411 kts | 288° |
| 2026-04-19 20:03 | 35.33319 | -4.32942 | 15000 ft | 411 kts | 288° |
| 2026-04-19 20:03 | 35.34203 | -4.36276 | 15002 ft | 411 kts | 288° |
| 2026-04-19 20:03 | 35.35087 | -4.39611 | 15000 ft | 411 kts | 288° |
| 2026-04-19 20:04 | 35.35968 | -4.42942 | 15003 ft | 411 kts | 288° |
| 2026-04-19 20:04 | 35.36850 | -4.46279 | 15004 ft | 412 kts | 288° |
| 2026-04-19 20:04 | 35.37730 | -4.49617 | 15002 ft | 412 kts | 288° |
| 2026-04-19 20:04 | 35.38609 | -4.52950 | 15001 ft | 412 kts | 288° |
| 2026-04-19 20:05 | 35.39488 | -4.56290 | 15002 ft | 412 kts | 288° |
| 2026-04-19 20:05 | 35.40365 | -4.59625 | 15001 ft | 412 kts | 288° |
| 2026-04-19 20:05 | 35.41232 | -4.62929 | 14982 ft | 398 kts | 288° |
| 2026-04-19 20:05 | 35.42058 | -4.66075 | 14979 ft | 377 kts | 288° |
| 2026-04-19 20:06 | 35.42837 | -4.69050 | 14982 ft | 357 kts | 288° |
| 2026-04-19 20:06 | 35.43580 | -4.71888 | 14987 ft | 344 kts | 288° |
| 2026-04-19 20:06 | 35.44313 | -4.74693 | 14865 ft | 347 kts | 288° |
| 2026-04-19 20:06 | 35.45046 | -4.77503 | 14590 ft | 344 kts | 288° |
| 2026-04-19 20:07 | 35.45775 | -4.80297 | 14176 ft | 343 kts | 288° |
| 2026-04-19 20:07 | 35.46262 | -4.82168 | 13892 ft | 340 kts | 288° |
| 2026-04-19 20:07 | 35.46979 | -4.84921 | 13454 ft | 337 kts | 288° |
| 2026-04-19 20:07 | 35.47916 | -4.88525 | 12894 ft | 333 kts | 287° |
| 2026-04-19 20:08 | 35.48391 | -4.90353 | 12600 ft | 332 kts | 287° |
| 2026-04-19 20:08 | 35.49089 | -4.93040 | 12179 ft | 329 kts | 287° |
| 2026-04-19 20:08 | 35.49779 | -4.95705 | 11745 ft | 327 kts | 287° |
| 2026-04-19 20:08 | 35.50466 | -4.98355 | 11319 ft | 325 kts | 287° |
| 2026-04-19 20:09 | 35.51147 | -5.00987 | 10893 ft | 322 kts | 287° |
| 2026-04-19 20:09 | 35.51821 | -5.03596 | 10533 ft | 318 kts | 287° |
| 2026-04-19 20:09 | 35.52478 | -5.06139 | 10405 ft | 307 kts | 287° |
| 2026-04-19 20:09 | 35.53112 | -5.08598 | 10263 ft | 297 kts | 287° |
| 2026-04-19 20:10 | 35.53725 | -5.10974 | 10131 ft | 288 kts | 287° |
| 2026-04-19 20:10 | 35.54318 | -5.13279 | 10013 ft | 278 kts | 287° |
| 2026-04-19 20:10 | 35.54897 | -5.15529 | 9741 ft | 276 kts | 287° |
| 2026-04-19 20:10 | 35.55472 | -5.17766 | 9461 ft | 274 kts | 287° |
| 2026-04-19 20:11 | 35.56043 | -5.19988 | 9173 ft | 272 kts | 287° |
| 2026-04-19 20:11 | 35.56609 | -5.22194 | 8881 ft | 270 kts | 287° |
| 2026-04-19 20:11 | 35.57173 | -5.24392 | 8594 ft | 269 kts | 287° |
| 2026-04-19 20:11 | 35.57733 | -5.26578 | 8302 ft | 268 kts | 287° |
| 2026-04-19 20:12 | 35.58290 | -5.28755 | 8012 ft | 266 kts | 287° |
| 2026-04-19 20:12 | 35.58843 | -5.30920 | 7722 ft | 265 kts | 287° |
| 2026-04-19 20:12 | 35.59387 | -5.33048 | 7439 ft | 264 kts | 287° |
| 2026-04-19 20:12 | 35.59943 | -5.35225 | 7138 ft | 263 kts | 287° |
| 2026-04-19 20:13 | 35.60481 | -5.37334 | 6868 ft | 262 kts | 287° |
| 2026-04-19 20:13 | 35.61031 | -5.39492 | 6570 ft | 261 kts | 287° |
| 2026-04-19 20:13 | 35.61572 | -5.41614 | 6284 ft | 260 kts | 287° |
| 2026-04-19 20:13 | 35.62110 | -5.43726 | 5996 ft | 259 kts | 287° |
| 2026-04-19 20:14 | 35.62645 | -5.45833 | 5719 ft | 258 kts | 287° |
| 2026-04-19 20:14 | 35.63171 | -5.47904 | 5458 ft | 256 kts | 287° |
| 2026-04-19 20:14 | 35.63702 | -5.49956 | 5358 ft | 248 kts | 290° |
| 2026-04-19 20:14 | 35.64398 | -5.51828 | 5355 ft | 235 kts | 297° |
| 2026-04-19 20:15 | 35.65147 | -5.53570 | 5276 ft | 226 kts | 298° |
| 2026-04-19 20:15 | 35.65873 | -5.55248 | 5187 ft | 218 kts | 297° |
| 2026-04-19 20:15 | 35.66570 | -5.56875 | 5077 ft | 214 kts | 297° |
| 2026-04-19 20:15 | 35.67261 | -5.58510 | 4881 ft | 216 kts | 297° |
| 2026-04-19 20:16 | 35.67951 | -5.60156 | 4659 ft | 217 kts | 297° |
| 2026-04-19 20:16 | 35.68637 | -5.61807 | 4432 ft | 216 kts | 297° |
| 2026-04-19 20:16 | 35.69320 | -5.63451 | 4203 ft | 215 kts | 297° |
| 2026-04-19 20:16 | 35.69998 | -5.65090 | 3971 ft | 215 kts | 297° |
| 2026-04-19 20:17 | 35.70638 | -5.66736 | 3813 ft | 209 kts | 288° |
| 2026-04-19 20:17 | 35.70957 | -5.68472 | 3630 ft | 210 kts | 278° |
| 2026-04-19 20:17 | 35.71153 | -5.70256 | 3371 ft | 210 kts | 277° |
| 2026-04-19 20:17 | 35.71329 | -5.72014 | 3101 ft | 205 kts | 276° |
| 2026-04-19 20:18 | 35.71487 | -5.73730 | 2830 ft | 199 kts | 276° |
| 2026-04-19 20:18 | 35.71637 | -5.75394 | 2565 ft | 192 kts | 276° |
| 2026-04-19 20:18 | 35.71783 | -5.77008 | 2306 ft | 187 kts | 276° |
| 2026-04-19 20:18 | 35.71925 | -5.78570 | 2058 ft | 181 kts | 276° |
| 2026-04-19 20:19 | 35.72063 | -5.80085 | 1826 ft | 175 kts | 276° |
| 2026-04-19 20:19 | 35.72197 | -5.81555 | 1606 ft | 170 kts | 276° |
| 2026-04-19 20:19 | 35.72325 | -5.82950 | 1411 ft | 157 kts | 276° |
| 2026-04-19 20:19 | 35.72442 | -5.84232 | 1183 ft | 143 kts | 276° |
| 2026-04-19 20:20 | 35.72549 | -5.85399 | 1006 ft | 136 kts | 276° |
| 2026-04-19 20:20 | 35.72653 | -5.86532 | 828 ft | 132 kts | 276° |
| 2026-04-19 20:20 | 35.72756 | -5.87659 | 651 ft | 133 kts | 276° |
| 2026-04-19 20:20 | 35.72860 | -5.88786 | 473 ft | 132 kts | 276° |
| 2026-04-19 20:21 | 35.72963 | -5.89909 | 304 ft | 132 kts | 276° |
| 2026-04-19 20:21 | 35.73067 | -5.91034 | 125 ft | 132 kts | 276° |
| 2026-04-19 20:21 | 35.73168 | -5.92132 | 42 ft | 121 kts | 276° |
| 2026-04-19 20:21 | 35.73242 | -5.92949 | 33 ft | 76 kts | 276° |
| 2026-04-19 20:22 | 35.73215 | -5.93318 | 29 ft | 22 kts | 200° |
| 2026-04-19 20:22 | 35.73090 | -5.93236 | 26 ft | 23 kts | 102° |
| 2026-04-19 20:22 | 35.73072 | -5.93047 | 31 ft | 22 kts | 96° |
| 2026-04-19 20:22 | 35.73058 | -5.92861 | 29 ft | 21 kts | 95° |
| 2026-04-19 20:23 | 35.73039 | -5.92664 | 26 ft | 28 kts | 96° |
| 2026-04-19 20:23 | 35.73013 | -5.92387 | 30 ft | 37 kts | 96° |
| 2026-04-19 20:23 | 35.72982 | -5.92037 | 29 ft | 39 kts | 96° |
| 2026-04-19 20:23 | 35.72924 | -5.91746 | 29 ft | 28 kts | 142° |
| 2026-04-19 20:24 | 35.72721 | -5.91704 | 24 ft | 32 kts | 175° |
| 2026-04-19 20:24 | 35.72488 | -5.91665 | 25 ft | 35 kts | 154° |
| 2026-04-19 20:24 | 35.72436 | -5.91397 | 26 ft | 36 kts | 86° |
| 2026-04-19 20:24 | 35.72489 | -5.91271 | 25 ft | 12 kts | 358° |
| 2026-04-19 20:25 | 35.72525 | -5.91274 | 24 ft | 0 kts | 355° |